createdAt,value
2022-08-19T00:04:42.261Z,22.95
2022-08-19T00:09:44.774Z,25.83
2022-08-19T00:14:48.643Z,25.15
2022-08-19T00:24:53.592Z,26.77
2022-08-19T00:29:59.814Z,23.73
2022-08-19T00:35:05.476Z,29.65
2022-08-19T00:40:09.301Z,20.35
2022-08-19T00:50:21.566Z,24.27
2022-08-19T00:55:28.983Z,24.25
2022-08-19T01:00:33.608Z,23.00
2022-08-19T01:05:37.145Z,23.65
2022-08-19T01:10:46.647Z,25.38
2022-08-19T01:15:56.928Z,24.75
2022-08-19T01:21:04.456Z,24.65
2022-08-19T01:26:08.260Z,24.55
2022-08-19T01:31:26.414Z,28.67
2022-08-19T01:36:33.080Z,28.77
2022-08-19T01:41:38.674Z,28.20
2022-08-19T01:46:42.051Z,25.15
2022-08-19T01:51:44.619Z,25.92
2022-08-19T01:56:48.829Z,26.70
2022-08-19T02:01:51.405Z,25.58
2022-08-19T02:06:53.928Z,26.63
2022-08-19T02:11:57.989Z,28.77
2022-08-19T02:17:00.461Z,29.77
2022-08-19T02:22:03.115Z,27.50
2022-08-19T02:27:07.248Z,29.98
2022-08-19T02:32:09.950Z,28.02
2022-08-19T02:37:32.612Z,30.23
2022-08-19T02:42:39.217Z,31.88
2022-08-19T02:47:41.771Z,33.85
2022-08-19T02:52:44.251Z,33.50
2022-08-19T02:57:48.293Z,35.05
2022-08-19T03:02:50.755Z,29.70
2022-08-19T03:07:53.259Z,36.00
2022-08-19T03:12:57.119Z,30.58
2022-08-19T03:17:59.819Z,33.05
2022-08-19T03:23:02.892Z,32.15
2022-08-19T03:28:07.409Z,30.43
2022-08-19T03:33:11.302Z,32.17
2022-08-19T03:38:20.733Z,26.98
2022-08-19T03:43:24.597Z,32.33
2022-08-19T03:53:31.683Z,35.38
2022-08-19T03:58:35.539Z,33.88
2022-08-19T04:08:41.495Z,37.50
2022-08-19T04:13:45.662Z,39.30
2022-08-19T04:18:49.701Z,35.03
2022-08-19T04:23:53.496Z,37.92
2022-08-19T04:29:00.310Z,34.10
2022-08-19T04:34:04.901Z,34.92
2022-08-19T04:39:10.650Z,40.00
2022-08-19T04:44:15.169Z,36.65
2022-08-19T04:49:19.407Z,34.65
2022-08-19T04:54:37.157Z,29.02
2022-08-19T04:59:42.972Z,35.58
2022-08-19T05:04:45.434Z,34.55
2022-08-19T05:09:58.966Z,30.10
2022-08-19T05:15:06.914Z,31.33
2022-08-19T05:20:28.616Z,31.40
2022-08-19T05:25:31.260Z,32.63
2022-08-19T05:30:46.729Z,31.92
2022-08-19T05:35:53.555Z,31.13
2022-08-19T05:40:56.039Z,30.25
2022-08-19T05:46:00.285Z,31.08
2022-08-19T05:51:07.141Z,31.25
2022-08-19T05:56:11.538Z,28.55
2022-08-19T06:01:17.953Z,32.30
2022-08-19T06:06:21.407Z,35.75
2022-08-19T06:11:25.706Z,30.67
2022-08-19T06:16:32.542Z,30.88
2022-08-19T06:21:38.127Z,34.45
2022-08-19T06:31:56.193Z,32.47
2022-08-19T06:37:02.012Z,27.88
2022-08-19T06:42:10.327Z,27.83
2022-08-19T06:47:23.487Z,29.80
2022-08-19T06:52:27.840Z,30.45
2022-08-19T06:57:33.566Z,32.23
2022-08-19T07:02:38.517Z,28.38
2022-08-19T07:07:44.096Z,23.55
2022-08-19T07:12:51.264Z,28.48
2022-08-19T07:17:55.221Z,27.30
2022-08-19T07:22:58.241Z,25.48
2022-08-19T07:28:01.615Z,24.70
2022-08-19T07:33:05.647Z,22.67
2022-08-19T07:38:08.412Z,20.95
2022-08-19T07:43:14.231Z,23.17
2022-08-19T07:48:21.787Z,26.30
2022-08-19T07:58:26.845Z,24.17
2022-08-19T08:03:45.129Z,23.05
2022-08-19T08:09:05.175Z,21.27
2022-08-19T08:14:29.510Z,21.42
2022-08-19T08:19:35.158Z,20.07
2022-08-19T08:24:37.989Z,21.92
2022-08-19T08:29:43.060Z,22.45
2022-08-19T08:34:47.386Z,18.23
2022-08-19T08:39:55.372Z,17.45
2022-08-19T08:45:01.596Z,18.73
2022-08-19T08:50:09.646Z,16.92
2022-08-19T08:55:16.282Z,18.45
2022-08-19T09:00:25.058Z,13.48
2022-08-19T09:05:42.116Z,13.38
2022-08-19T09:10:55.475Z,14.90
2022-08-19T09:16:02.503Z,12.35
2022-08-19T09:21:07.010Z,11.68
2022-08-19T09:26:11.716Z,12.88
2022-08-19T09:31:15.974Z,12.48
2022-08-19T09:36:34.844Z,13.75
2022-08-19T09:41:38.039Z,13.77
2022-08-19T09:46:40.557Z,16.05
2022-08-19T09:51:46.880Z,13.98
2022-08-19T09:56:53.970Z,15.65
2022-08-19T10:01:56.955Z,24.30
2022-08-19T10:07:07.914Z,17.85
2022-08-19T10:12:12.769Z,17.77
2022-08-19T10:17:23.123Z,16.58
2022-08-19T10:22:31.672Z,15.50
2022-08-19T10:27:34.224Z,11.82
2022-08-19T10:32:38.378Z,12.80
2022-08-19T10:37:57.667Z,10.30
2022-08-19T10:43:04.787Z,10.52
2022-08-19T10:48:07.316Z,13.25
2022-08-19T10:53:20.974Z,14.15
2022-08-19T10:58:27.264Z,12.98
2022-08-19T11:03:30.787Z,12.38
2022-08-19T11:08:35.789Z,14.20
2022-08-19T11:13:41.768Z,13.80
2022-08-19T11:18:48.125Z,14.00
2022-08-19T11:23:54.914Z,13.38
2022-08-19T11:28:58.689Z,11.02
2022-08-19T11:34:06.433Z,11.23
2022-08-19T11:39:12.532Z,10.50
2022-08-19T11:44:16.177Z,10.52
2022-08-19T11:49:22.043Z,9.05
2022-08-19T11:54:26.383Z,8.48
2022-08-19T11:59:30.302Z,7.80
2022-08-19T12:04:32.825Z,8.25
2022-08-19T12:09:37.131Z,6.70
2022-08-19T12:14:45.677Z,5.30
2022-08-19T12:19:48.189Z,6.70
2022-08-19T12:24:54.276Z,6.07
2022-08-19T12:29:57.014Z,5.30
2022-08-19T12:34:59.538Z,5.10
2022-08-19T12:40:04.398Z,4.63
2022-08-19T12:45:07.780Z,5.35
2022-08-19T12:50:14.093Z,4.93
2022-08-19T12:55:19.541Z,6.47
2022-08-19T13:00:23.870Z,5.70
2022-08-19T13:05:31.165Z,5.07
2022-08-19T13:10:40.073Z,4.80
2022-08-19T13:15:49.265Z,5.95
2022-08-19T13:20:52.738Z,5.40
2022-08-19T13:26:00.974Z,6.65
2022-08-19T13:31:21.254Z,7.05
2022-08-19T13:36:23.765Z,6.05
2022-08-19T13:41:27.941Z,9.38
2022-08-19T13:46:31.542Z,9.98
2022-08-19T13:51:34.221Z,8.32
2022-08-19T13:56:42.768Z,9.50
2022-08-19T14:01:45.264Z,8.30
2022-08-19T14:06:49.640Z,9.07
2022-08-19T14:11:53.475Z,6.20
2022-08-19T14:21:59.059Z,5.53
2022-08-19T14:27:04.248Z,6.15
2022-08-19T14:32:08.089Z,6.45
2022-08-19T14:37:15.356Z,5.65
2022-08-19T14:47:21.677Z,7.27
2022-08-19T14:57:29.879Z,9.20
2022-08-19T15:07:37.677Z,8.35
2022-08-19T15:12:43.626Z,9.52
2022-08-19T15:17:47.375Z,9.05
2022-08-19T15:27:54.138Z,9.65
2022-08-19T15:32:58.467Z,6.93
2022-08-19T15:38:01.002Z,8.60
2022-08-19T15:43:04.827Z,10.80
2022-08-19T15:53:11.747Z,8.70
2022-08-19T15:58:33.670Z,8.63
2022-08-19T16:03:53.958Z,9.13
2022-08-19T16:08:58.654Z,9.05
2022-08-19T16:14:03.673Z,10.20
2022-08-19T16:19:11.861Z,11.13
2022-08-19T16:24:16.810Z,9.63
2022-08-19T16:29:33.808Z,10.07
2022-08-19T16:34:42.402Z,10.88
2022-08-19T16:39:45.729Z,9.88
2022-08-19T16:44:49.778Z,12.18
2022-08-19T16:49:55.212Z,10.18
2022-08-19T16:54:58.131Z,12.23
2022-08-19T17:00:05.122Z,10.57
2022-08-19T17:05:09.405Z,10.38
2022-08-19T17:10:11.982Z,11.48
2022-08-19T17:15:15.797Z,10.05
2022-08-19T17:25:21.023Z,10.15
2022-08-19T17:30:26.167Z,9.57
2022-08-19T17:35:28.724Z,10.38
2022-08-19T17:40:31.256Z,9.45
2022-08-19T17:45:36.419Z,11.13
2022-08-19T17:50:40.394Z,8.57
2022-08-19T17:55:42.903Z,9.77
2022-08-19T18:00:54.441Z,9.80
2022-08-19T18:05:58.605Z,9.38
2022-08-19T18:11:01.823Z,9.27
2022-08-19T18:16:06.951Z,10.10
2022-08-19T18:21:10.351Z,9.35
2022-08-19T18:26:12.974Z,10.15
2022-08-19T18:31:17.143Z,9.00
2022-08-19T18:36:37.381Z,11.80
2022-08-19T18:42:00.679Z,10.93
2022-08-19T18:47:22.430Z,11.23
2022-08-19T18:52:27.079Z,9.68
2022-08-19T18:57:29.580Z,8.77
2022-08-19T19:02:38.886Z,9.43
2022-08-19T19:07:41.737Z,11.50
2022-08-19T19:12:45.450Z,10.35
2022-08-19T19:17:50.059Z,9.05
2022-08-19T19:22:52.516Z,8.82
2022-08-19T19:27:58.556Z,8.95
2022-08-19T19:33:03.181Z,9.65
2022-08-19T19:38:08.445Z,9.27
2022-08-19T19:43:11.019Z,8.93
2022-08-19T19:48:16.758Z,10.65
2022-08-19T19:53:19.241Z,7.75
2022-08-19T19:58:22.755Z,7.65
2022-08-19T20:03:32.918Z,8.02
2022-08-19T20:13:55.679Z,8.40
2022-08-19T20:19:01.218Z,8.65
2022-08-19T20:24:09.145Z,7.43
2022-08-19T20:29:38.062Z,9.13
2022-08-19T20:34:38.079Z,9.48
2022-08-19T20:39:40.797Z,7.75
2022-08-19T20:44:43.335Z,10.60
2022-08-19T20:49:47.272Z,8.02
2022-08-19T20:59:52.226Z,8.98
2022-08-19T21:04:59.021Z,10.82
2022-08-19T21:10:02.872Z,8.45
2022-08-19T21:15:09.849Z,9.13
2022-08-19T21:20:13.766Z,9.88
2022-08-19T21:30:19.611Z,12.02
2022-08-19T21:35:24.191Z,11.63
2022-08-19T21:40:27.201Z,10.88
2022-08-19T21:45:30.142Z,9.80
2022-08-19T21:50:34.027Z,9.90
2022-08-19T21:55:36.521Z,9.20
2022-08-19T22:00:40.242Z,11.32
2022-08-19T22:05:44.434Z,10.98
2022-08-19T22:10:46.940Z,13.30
2022-08-19T22:15:51.874Z,12.75
2022-08-19T22:20:56.663Z,10.65
2022-08-19T22:25:59.381Z,10.38
2022-08-19T22:31:02.430Z,10.15
2022-08-19T22:36:08.498Z,11.23
2022-08-19T22:41:11.535Z,9.57
2022-08-19T22:46:17.350Z,10.53
2022-08-19T22:51:39.447Z,13.52
2022-08-19T22:56:43.352Z,16.67
2022-08-19T23:01:46.271Z,11.02
2022-08-19T23:06:52.857Z,11.95
2022-08-19T23:11:55.661Z,11.70
2022-08-19T23:16:59.185Z,10.57
2022-08-19T23:22:05.092Z,12.35
2022-08-19T23:27:30.280Z,9.60
2022-08-19T23:32:36.038Z,9.60
2022-08-19T23:37:39.813Z,9.52
2022-08-19T23:42:44.351Z,10.45
2022-08-19T23:47:47.485Z,8.85
2022-08-19T23:52:54.372Z,9.50
2022-08-19T23:57:57.495Z,12.80
